sensor_id;sensor_type;location;lat;lon;timestamp;pressure;altitude;pressure_sealevel;temperature;humidity
16451;BME280;12243;42.708;23.310;2023-03-04T00:00:10;95050.19;;;6.30;100.00
16451;BME280;12243;42.708;23.310;2023-03-04T00:02:38;95051.72;;;6.19;100.00
16451;BME280;12243;42.708;23.310;2023-03-04T00:05:06;95049.94;;;6.07;100.00
16451;BME280;12243;42.708;23.310;2023-03-04T00:07:33;95050.06;;;6.18;100.00
16451;BME280;12243;42.708;23.310;2023-03-04T00:10:00;95058.75;;;6.17;100.00
16451;BME280;12243;42.708;23.310;2023-03-04T00:12:26;95050.06;;;6.18;100.00
16451;BME280;12243;42.708;23.310;2023-03-04T00:14:53;95054.00;;;6.24;100.00
16451;BME280;12243;42.708;23.310;2023-03-04T00:17:20;95044.06;;;6.18;100.00
16451;BME280;12243;42.708;23.310;2023-03-04T00:19:49;95038.91;;;6.18;100.00
16451;BME280;12243;42.708;23.310;2023-03-04T00:22:15;95045.28;;;6.12;100.00
16451;BME280;12243;42.708;23.310;2023-03-04T00:24:42;95044.25;;;6.15;100.00
16451;BME280;12243;42.708;23.310;2023-03-04T00:27:09;95042.69;;;6.12;100.00
16451;BME280;12243;42.708;23.310;2023-03-04T00:29:36;95037.34;;;6.15;100.00
16451;BME280;12243;42.708;23.310;2023-03-04T00:32:03;95038.28;;;6.14;100.00
16451;BME280;12243;42.708;23.310;2023-03-04T00:34:30;95032.34;;;6.12;100.00
16451;BME280;12243;42.708;23.310;2023-03-04T00:36:58;95033.59;;;6.07;100.00
16451;BME280;12243;42.708;23.310;2023-03-04T00:39:28;95034.09;;;5.99;100.00
16451;BME280;12243;42.708;23.310;2023-03-04T00:41:54;95031.25;;;5.89;100.00
16451;BME280;12243;42.708;23.310;2023-03-04T00:44:21;95031.22;;;6.04;100.00
16451;BME280;12243;42.708;23.310;2023-03-04T00:46:48;95028.63;;;6.04;100.00
16451;BME280;12243;42.708;23.310;2023-03-04T00:49:15;95026.91;;;5.90;100.00
16451;BME280;12243;42.708;23.310;2023-03-04T00:51:42;95031.06;;;5.92;100.00
16451;BME280;12243;42.708;23.310;2023-03-04T00:54:10;95029.97;;;5.96;100.00
16451;BME280;12243;42.708;23.310;2023-03-04T00:56:37;95029.53;;;6.03;100.00
16451;BME280;12243;42.708;23.310;2023-03-04T00:59:04;95028.84;;;6.01;100.00
16451;BME280;12243;42.708;23.310;2023-03-04T01:01:31;95027.19;;;6.12;100.00
16451;BME280;12243;42.708;23.310;2023-03-04T01:03:58;95022.13;;;6.11;100.00
16451;BME280;12243;42.708;23.310;2023-03-04T01:06:25;95024.81;;;6.09;100.00
16451;BME280;12243;42.708;23.310;2023-03-04T01:08:52;95022.44;;;6.19;100.00
16451;BME280;12243;42.708;23.310;2023-03-04T01:11:20;95024.81;;;6.09;100.00
16451;BME280;12243;42.708;23.310;2023-03-04T01:13:47;95028.13;;;6.11;100.00
16451;BME280;12243;42.708;23.310;2023-03-04T01:16:14;95024.72;;;6.11;100.00
16451;BME280;12243;42.708;23.310;2023-03-04T01:18:41;95020.88;;;6.16;100.00
16451;BME280;12243;42.708;23.310;2023-03-04T01:21:09;95025.03;;;6.19;100.00
16451;BME280;12243;42.708;23.310;2023-03-04T01:23:36;95016.22;;;6.09;100.00
16451;BME280;12243;42.708;23.310;2023-03-04T01:26:03;95012.41;;;6.14;100.00
16451;BME280;12243;42.708;23.310;2023-03-04T01:28:31;95017.38;;;6.17;100.00
16451;BME280;12243;42.708;23.310;2023-03-04T01:31:00;95011.91;;;6.22;100.00
16451;BME280;12243;42.708;23.310;2023-03-04T01:33:27;95018.22;;;6.18;100.00
16451;BME280;12243;42.708;23.310;2023-03-04T01:35:54;95012.94;;;6.19;100.00
16451;BME280;12243;42.708;23.310;2023-03-04T01:38:21;95007.13;;;6.16;100.00
16451;BME280;12243;42.708;23.310;2023-03-04T01:40:48;95001.13;;;6.15;100.00
16451;BME280;12243;42.708;23.310;2023-03-04T01:43:19;94997.13;;;6.24;100.00
16451;BME280;12243;42.708;23.310;2023-03-04T01:45:50;94988.22;;;6.28;100.00
16451;BME280;12243;42.708;23.310;2023-03-04T01:48:19;94994.63;;;6.23;100.00
16451;BME280;12243;42.708;23.310;2023-03-04T01:50:48;94980.94;;;6.20;100.00
16451;BME280;12243;42.708;23.310;2023-03-04T01:53:19;94984.88;;;6.13;100.00
16451;BME280;12243;42.708;23.310;2023-03-04T01:55:47;94983.63;;;6.06;100.00
16451;BME280;12243;42.708;23.310;2023-03-04T01:58:14;94986.84;;;5.97;100.00
16451;BME280;12243;42.708;23.310;2023-03-04T02:00:42;94985.91;;;5.98;100.00
16451;BME280;12243;42.708;23.310;2023-03-04T02:03:14;94982.50;;;5.97;100.00
16451;BME280;12243;42.708;23.310;2023-03-04T02:05:43;94979.50;;;6.16;100.00
16451;BME280;12243;42.708;23.310;2023-03-04T02:08:11;94978.91;;;6.00;100.00
16451;BME280;12243;42.708;23.310;2023-03-04T02:10:41;94977.41;;;5.96;100.00
16451;BME280;12243;42.708;23.310;2023-03-04T02:13:09;94990.25;;;5.97;100.00
16451;BME280;12243;42.708;23.310;2023-03-04T02:15:36;94978.25;;;6.09;100.00
16451;BME280;12243;42.708;23.310;2023-03-04T02:18:07;94985.13;;;6.10;100.00
16451;BME280;12243;42.708;23.310;2023-03-04T02:20:47;94983.44;;;6.09;100.00
16451;BME280;12243;42.708;23.310;2023-03-04T02:23:19;94979.94;;;6.10;100.00
16451;BME280;12243;42.708;23.310;2023-03-04T02:25:49;94980.75;;;6.11;100.00
16451;BME280;12243;42.708;23.310;2023-03-04T02:28:20;94980.97;;;6.08;100.00
16451;BME280;12243;42.708;23.310;2023-03-04T02:30:47;94979.41;;;6.05;100.00
16451;BME280;12243;42.708;23.310;2023-03-04T02:33:16;94979.19;;;6.08;100.00
16451;BME280;12243;42.708;23.310;2023-03-04T02:35:43;94976.41;;;6.11;100.00
16451;BME280;12243;42.708;23.310;2023-03-04T02:38:11;94978.69;;;6.16;100.00
16451;BME280;12243;42.708;23.310;2023-03-04T02:40:40;94974.53;;;6.13;100.00
16451;BME280;12243;42.708;23.310;2023-03-04T02:43:10;94970.22;;;6.14;100.00
16451;BME280;12243;42.708;23.310;2023-03-04T02:45:43;94969.28;;;6.15;100.00
16451;BME280;12243;42.708;23.310;2023-03-04T02:48:12;94968.31;;;6.03;100.00
16451;BME280;12243;42.708;23.310;2023-03-04T02:50:42;94965.78;;;5.89;100.00
16451;BME280;12243;42.708;23.310;2023-03-04T02:53:10;94959.91;;;5.87;100.00
16451;BME280;12243;42.708;23.310;2023-03-04T02:55:37;94962.66;;;5.71;100.00
16451;BME280;12243;42.708;23.310;2023-03-04T02:58:05;94957.22;;;5.76;100.00
16451;BME280;12243;42.708;23.310;2023-03-04T03:00:33;94966.81;;;5.73;100.00
16451;BME280;12243;42.708;23.310;2023-03-04T03:03:02;94960.81;;;5.73;100.00
16451;BME280;12243;42.708;23.310;2023-03-04T03:05:31;94967.94;;;5.69;100.00
16451;BME280;12243;42.708;23.310;2023-03-04T03:07:59;94964.09;;;5.62;100.00
16451;BME280;12243;42.708;23.310;2023-03-04T03:10:26;94970.84;;;5.65;100.00
16451;BME280;12243;42.708;23.310;2023-03-04T03:12:53;94976.28;;;5.60;100.00
16451;BME280;12243;42.708;23.310;2023-03-04T03:15:21;94970.69;;;5.54;100.00
16451;BME280;12243;42.708;23.310;2023-03-04T03:17:48;94962.22;;;5.52;100.00
16451;BME280;12243;42.708;23.310;2023-03-04T03:20:16;94972.56;;;5.52;100.00
16451;BME280;12243;42.708;23.310;2023-03-04T03:22:45;94968.72;;;5.57;100.00
16451;BME280;12243;42.708;23.310;2023-03-04T03:25:14;94968.91;;;5.54;100.00
16451;BME280;12243;42.708;23.310;2023-03-04T03:27:42;94964.50;;;5.56;100.00
16451;BME280;12243;42.708;23.310;2023-03-04T03:30:13;94966.56;;;5.51;100.00
16451;BME280;12243;42.708;23.310;2023-03-04T03:32:40;94959.91;;;5.47;100.00
16451;BME280;12243;42.708;23.310;2023-03-04T03:35:08;94956.44;;;5.48;100.00
16451;BME280;12243;42.708;23.310;2023-03-04T03:37:36;94958.84;;;5.37;100.00
16451;BME280;12243;42.708;23.310;2023-03-04T03:40:04;94960.72;;;5.35;100.00
16451;BME280;12243;42.708;23.310;2023-03-04T03:42:31;94959.97;;;5.33;100.00
16451;BME280;12243;42.708;23.310;2023-03-04T03:44:58;94963.50;;;5.32;100.00
16451;BME280;12243;42.708;23.310;2023-03-04T03:47:25;94956.69;;;5.31;100.00
16451;BME280;12243;42.708;23.310;2023-03-04T03:49:52;94954.28;;;5.28;100.00
16451;BME280;12243;42.708;23.310;2023-03-04T03:52:18;94952.00;;;5.23;100.00
16451;BME280;12243;42.708;23.310;2023-03-04T03:54:47;94960.28;;;5.28;100.00
16451;BME280;12243;42.708;23.310;2023-03-04T03:57:13;94947.56;;;5.25;100.00
16451;BME280;12243;42.708;23.310;2023-03-04T03:59:40;94957.63;;;5.15;100.00
16451;BME280;12243;42.708;23.310;2023-03-04T04:02:07;94953.22;;;5.17;100.00
16451;BME280;12243;42.708;23.310;2023-03-04T04:04:34;94947.50;;;5.12;100.00
16451;BME280;12243;42.708;23.310;2023-03-04T04:07:01;94946.03;;;5.08;100.00
16451;BME280;12243;42.708;23.310;2023-03-04T04:09:28;94946.97;;;5.07;100.00
16451;BME280;12243;42.708;23.310;2023-03-04T04:11:56;94938.75;;;5.15;100.00
16451;BME280;12243;42.708;23.310;2023-03-04T04:14:23;94939.91;;;5.23;100.00
16451;BME280;12243;42.708;23.310;2023-03-04T04:16:50;94937.72;;;5.17;100.00
16451;BME280;12243;42.708;23.310;2023-03-04T04:19:18;94935.91;;;5.05;100.00
16451;BME280;12243;42.708;23.310;2023-03-04T04:21:45;94943.13;;;5.00;100.00
16451;BME280;12243;42.708;23.310;2023-03-04T04:24:12;94941.66;;;4.96;100.00
16451;BME280;12243;42.708;23.310;2023-03-04T04:26:39;94941.56;;;4.97;100.00
16451;BME280;12243;42.708;23.310;2023-03-04T04:29:08;94942.78;;;4.92;100.00
16451;BME280;12243;42.708;23.310;2023-03-04T04:31:35;94941.09;;;4.91;100.00
16451;BME280;12243;42.708;23.310;2023-03-04T04:34:02;94935.03;;;4.92;100.00
16451;BME280;12243;42.708;23.310;2023-03-04T04:36:29;94939.09;;;4.96;100.00
16451;BME280;12243;42.708;23.310;2023-03-04T04:38:56;94937.41;;;4.95;100.00
16451;BME280;12243;42.708;23.310;2023-03-04T04:41:24;94945.56;;;4.89;100.00
16451;BME280;12243;42.708;23.310;2023-03-04T04:43:52;94945.16;;;4.95;100.00
16451;BME280;12243;42.708;23.310;2023-03-04T04:46:20;94941.03;;;4.92;100.00
16451;BME280;12243;42.708;23.310;2023-03-04T04:48:47;94946.44;;;4.88;100.00
16451;BME280;12243;42.708;23.310;2023-03-04T04:51:14;94946.25;;;4.91;100.00
16451;BME280;12243;42.708;23.310;2023-03-04T04:53:41;94946.94;;;4.80;100.00
16451;BME280;12243;42.708;23.310;2023-03-04T04:56:10;94947.38;;;4.87;100.00
16451;BME280;12243;42.708;23.310;2023-03-04T04:58:37;94946.84;;;4.82;100.00
16451;BME280;12243;42.708;23.310;2023-03-04T05:01:05;94957.38;;;4.78;100.00
16451;BME280;12243;42.708;23.310;2023-03-04T05:03:34;94955.38;;;4.96;100.00
16451;BME280;12243;42.708;23.310;2023-03-04T05:06:02;94961.56;;;4.94;100.00
16451;BME280;12243;42.708;23.310;2023-03-04T05:08:29;94963.06;;;4.84;100.00
16451;BME280;12243;42.708;23.310;2023-03-04T05:10:56;94966.63;;;4.81;100.00
16451;BME280;12243;42.708;23.310;2023-03-04T05:13:23;94968.41;;;4.81;100.00
16451;BME280;12243;42.708;23.310;2023-03-04T05:15:50;94975.13;;;4.83;100.00
16451;BME280;12243;42.708;23.310;2023-03-04T05:18:17;94973.00;;;4.90;100.00
16451;BME280;12243;42.708;23.310;2023-03-04T05:20:49;94975.28;;;4.94;100.00
16451;BME280;12243;42.708;23.310;2023-03-04T05:23:16;94973.16;;;5.01;100.00
16451;BME280;12243;42.708;23.310;2023-03-04T05:25:42;94977.66;;;5.12;100.00
16451;BME280;12243;42.708;23.310;2023-03-04T05:28:09;94975.97;;;5.25;100.00
16451;BME280;12243;42.708;23.310;2023-03-04T05:30:37;94979.50;;;5.37;100.00
16451;BME280;12243;42.708;23.310;2023-03-04T05:33:04;94984.09;;;5.46;100.00
16451;BME280;12243;42.708;23.310;2023-03-04T05:35:33;94986.47;;;5.49;100.00
16451;BME280;12243;42.708;23.310;2023-03-04T05:38:01;94982.56;;;5.56;100.00
16451;BME280;12243;42.708;23.310;2023-03-04T05:40:28;94984.38;;;5.68;100.00
16451;BME280;12243;42.708;23.310;2023-03-04T05:42:55;94985.22;;;5.82;100.00
16451;BME280;12243;42.708;23.310;2023-03-04T05:45:22;94983.63;;;5.93;100.00
16451;BME280;12243;42.708;23.310;2023-03-04T05:47:49;94979.00;;;6.11;100.00
16451;BME280;12243;42.708;23.310;2023-03-04T05:50:16;94981.59;;;6.24;100.00
16451;BME280;12243;42.708;23.310;2023-03-04T05:52:43;94986.75;;;6.37;100.00
16451;BME280;12243;42.708;23.310;2023-03-04T05:55:11;94989.03;;;6.54;100.00
16451;BME280;12243;42.708;23.310;2023-03-04T05:57:38;94999.38;;;6.67;100.00
16451;BME280;12243;42.708;23.310;2023-03-04T06:00:07;94997.91;;;6.76;100.00
16451;BME280;12243;42.708;23.310;2023-03-04T06:02:41;95004.31;;;6.83;100.00
16451;BME280;12243;42.708;23.310;2023-03-04T06:05:09;95007.13;;;6.92;100.00
16451;BME280;12243;42.708;23.310;2023-03-04T06:07:36;95000.06;;;6.95;100.00
16451;BME280;12243;42.708;23.310;2023-03-04T06:10:04;95006.56;;;7.00;100.00
16451;BME280;12243;42.708;23.310;2023-03-04T06:12:32;95002.19;;;7.13;100.00
16451;BME280;12243;42.708;23.310;2023-03-04T06:14:59;95005.53;;;7.15;100.00
16451;BME280;12243;42.708;23.310;2023-03-04T06:17:27;94999.28;;;7.18;100.00
16451;BME280;12243;42.708;23.310;2023-03-04T06:19:54;95004.63;;;7.28;100.00
16451;BME280;12243;42.708;23.310;2023-03-04T06:22:21;95010.34;;;7.33;100.00
16451;BME280;12243;42.708;23.310;2023-03-04T06:24:48;95013.09;;;7.43;100.00
16451;BME280;12243;42.708;23.310;2023-03-04T06:27:15;95013.78;;;7.57;100.00
16451;BME280;12243;42.708;23.310;2023-03-04T06:29:43;95016.06;;;7.73;100.00
16451;BME280;12243;42.708;23.310;2023-03-04T06:32:10;95018.00;;;7.82;100.00
16451;BME280;12243;42.708;23.310;2023-03-04T06:34:37;95020.53;;;7.95;100.00
16451;BME280;12243;42.708;23.310;2023-03-04T06:37:04;95025.19;;;8.14;100.00
16451;BME280;12243;42.708;23.310;2023-03-04T06:39:30;95016.03;;;8.21;98.74
16451;BME280;12243;42.708;23.310;2023-03-04T06:41:58;95012.41;;;8.35;96.17
16451;BME280;12243;42.708;23.310;2023-03-04T06:44:24;95014.03;;;8.36;95.09
16451;BME280;12243;42.708;23.310;2023-03-04T06:46:53;95021.53;;;8.41;95.62
16451;BME280;12243;42.708;23.310;2023-03-04T06:49:20;95021.56;;;8.52;94.96
16451;BME280;12243;42.708;23.310;2023-03-04T06:51:46;95018.97;;;8.52;92.86
16451;BME280;12243;42.708;23.310;2023-03-04T06:54:13;95022.97;;;8.45;92.09
16451;BME280;12243;42.708;23.310;2023-03-04T06:56:40;95028.84;;;8.47;91.42
16451;BME280;12243;42.708;23.310;2023-03-04T06:59:07;95031.81;;;8.18;91.47
16451;BME280;12243;42.708;23.310;2023-03-04T07:01:34;95034.50;;;8.05;92.03
16451;BME280;12243;42.708;23.310;2023-03-04T07:04:02;95033.81;;;7.91;92.78
16451;BME280;12243;42.708;23.310;2023-03-04T07:06:29;95031.69;;;7.84;94.14
16451;BME280;12243;42.708;23.310;2023-03-04T07:08:56;95027.56;;;7.82;94.18
16451;BME280;12243;42.708;23.310;2023-03-04T07:11:24;95027.66;;;7.80;95.49
16451;BME280;12243;42.708;23.310;2023-03-04T07:13:51;95036.88;;;7.84;95.32
16451;BME280;12243;42.708;23.310;2023-03-04T07:16:20;95036.00;;;7.73;94.42
16451;BME280;12243;42.708;23.310;2023-03-04T07:18:48;95035.59;;;7.66;94.30
16451;BME280;12243;42.708;23.310;2023-03-04T07:21:17;95037.28;;;7.67;94.79
16451;BME280;12243;42.708;23.310;2023-03-04T07:23:44;95042.81;;;7.74;95.15
16451;BME280;12243;42.708;23.310;2023-03-04T07:26:12;95035.75;;;8.00;94.44
16451;BME280;12243;42.708;23.310;2023-03-04T07:28:38;95038.03;;;8.16;92.19
16451;BME280;12243;42.708;23.310;2023-03-04T07:31:11;95038.28;;;8.13;91.32
16451;BME280;12243;42.708;23.310;2023-03-04T07:33:38;95041.59;;;8.15;91.28
16451;BME280;12243;42.708;23.310;2023-03-04T07:36:05;95049.88;;;8.20;91.55
16451;BME280;12243;42.708;23.310;2023-03-04T07:38:34;95042.78;;;8.22;90.28
16451;BME280;12243;42.708;23.310;2023-03-04T07:41:00;95038.56;;;8.32;90.39
16451;BME280;12243;42.708;23.310;2023-03-04T07:43:27;95040.00;;;8.36;90.56
16451;BME280;12243;42.708;23.310;2023-03-04T07:45:58;95040.41;;;8.43;89.05
16451;BME280;12243;42.708;23.310;2023-03-04T07:48:26;95045.66;;;8.30;89.47
16451;BME280;12243;42.708;23.310;2023-03-04T07:51:05;95030.41;;;8.25;90.37
16451;BME280;12243;42.708;23.310;2023-03-04T07:53:34;95030.88;;;8.54;89.99
16451;BME280;12243;42.708;23.310;2023-03-04T07:56:02;95034.19;;;8.68;88.66
16451;BME280;12243;42.708;23.310;2023-03-04T07:58:29;95029.00;;;8.68;87.03
16451;BME280;12243;42.708;23.310;2023-03-04T08:00:56;95029.00;;;8.68;87.75
16451;BME280;12243;42.708;23.310;2023-03-04T08:03:24;95033.38;;;8.67;88.17
16451;BME280;12243;42.708;23.310;2023-03-04T08:05:51;95036.56;;;8.71;87.83
16451;BME280;12243;42.708;23.310;2023-03-04T08:08:17;95029.50;;;8.84;87.56
16451;BME280;12243;42.708;23.310;2023-03-04T08:10:46;95026.16;;;8.82;86.59
16451;BME280;12243;42.708;23.310;2023-03-04T08:13:12;95027.84;;;8.83;86.25
16451;BME280;12243;42.708;23.310;2023-03-04T08:15:40;95032.81;;;8.86;86.64
16451;BME280;12243;42.708;23.310;2023-03-04T08:18:07;95027.38;;;8.89;85.65
16451;BME280;12243;42.708;23.310;2023-03-04T08:20:34;95029.72;;;8.81;86.08
16451;BME280;12243;42.708;23.310;2023-03-04T08:23:01;95024.06;;;8.76;85.77
16451;BME280;12243;42.708;23.310;2023-03-04T08:25:28;95030.19;;;8.75;84.76
16451;BME280;12243;42.708;23.310;2023-03-04T08:27:57;95024.28;;;8.73;84.68
16451;BME280;12243;42.708;23.310;2023-03-04T08:30:24;95030.78;;;8.78;85.31
16451;BME280;12243;42.708;23.310;2023-03-04T08:32:51;95025.56;;;8.78;84.65
16451;BME280;12243;42.708;23.310;2023-03-04T08:35:18;95028.66;;;8.72;85.12
16451;BME280;12243;42.708;23.310;2023-03-04T08:37:45;95022.75;;;8.59;85.25
16451;BME280;12243;42.708;23.310;2023-03-04T08:40:12;95022.38;;;8.52;86.07
16451;BME280;12243;42.708;23.310;2023-03-04T08:42:39;95024.84;;;8.54;86.00
16451;BME280;12243;42.708;23.310;2023-03-04T08:45:09;95026.53;;;8.66;86.32
16451;BME280;12243;42.708;23.310;2023-03-04T08:47:36;95018.50;;;8.80;85.46
16451;BME280;12243;42.708;23.310;2023-03-04T08:50:05;95012.03;;;8.86;85.08
16451;BME280;12243;42.708;23.310;2023-03-04T08:52:32;95016.97;;;8.78;84.68
16451;BME280;12243;42.708;23.310;2023-03-04T08:54:59;95018.28;;;8.83;85.73
16451;BME280;12243;42.708;23.310;2023-03-04T08:57:26;95008.72;;;9.06;86.19
16451;BME280;12243;42.708;23.310;2023-03-04T08:59:53;95013.19;;;9.38;84.87
16451;BME280;12243;42.708;23.310;2023-03-04T09:02:21;95021.13;;;9.69;83.09
16451;BME280;12243;42.708;23.310;2023-03-04T09:04:48;95005.13;;;9.85;82.59
16451;BME280;12243;42.708;23.310;2023-03-04T09:07:15;95007.88;;;10.04;79.58
16451;BME280;12243;42.708;23.310;2023-03-04T09:09:42;94997.59;;;10.02;78.91
16451;BME280;12243;42.708;23.310;2023-03-04T09:12:09;95003.50;;;10.05;78.42
16451;BME280;12243;42.708;23.310;2023-03-04T09:14:36;95000.66;;;10.08;78.21
16451;BME280;12243;42.708;23.310;2023-03-04T09:17:03;94996.06;;;10.21;77.21
16451;BME280;12243;42.708;23.310;2023-03-04T09:19:31;95001.81;;;10.15;76.82
16451;BME280;12243;42.708;23.310;2023-03-04T09:21:58;94991.06;;;10.08;76.78
16451;BME280;12243;42.708;23.310;2023-03-04T09:24:25;94991.41;;;10.15;77.55
16451;BME280;12243;42.708;23.310;2023-03-04T09:26:53;94995.94;;;10.34;77.26
16451;BME280;12243;42.708;23.310;2023-03-04T09:29:20;94991.88;;;10.41;77.07
16451;BME280;12243;42.708;23.310;2023-03-04T09:31:47;94986.06;;;10.58;75.69
16451;BME280;12243;42.708;23.310;2023-03-04T09:34:15;94983.88;;;10.54;76.73
16451;BME280;12243;42.708;23.310;2023-03-04T09:36:43;94990.00;;;10.53;77.29
16451;BME280;12243;42.708;23.310;2023-03-04T09:39:10;94988.47;;;10.71;76.17
16451;BME280;12243;42.708;23.310;2023-03-04T09:41:39;94977.75;;;10.95;76.45
16451;BME280;12243;42.708;23.310;2023-03-04T09:44:19;94988.69;;;11.29;74.08
16451;BME280;12243;42.708;23.310;2023-03-04T09:46:48;94981.34;;;11.44;74.26
16451;BME280;12243;42.708;23.310;2023-03-04T09:49:16;94978.53;;;11.36;73.17
16451;BME280;12243;42.708;23.310;2023-03-04T09:51:54;94984.97;;;11.22;74.31
16451;BME280;12243;42.708;23.310;2023-03-04T09:57:41;94971.00;;;11.33;72.79
16451;BME280;12243;42.708;23.310;2023-03-04T10:00:15;94976.53;;;11.49;72.55
16451;BME280;12243;42.708;23.310;2023-03-04T10:02:52;94978.31;;;11.49;73.49
16451;BME280;12243;42.708;23.310;2023-03-04T10:05:26;94966.78;;;11.61;72.79
16451;BME280;12243;42.708;23.310;2023-03-04T10:07:59;94965.44;;;11.76;72.75
16451;BME280;12243;42.708;23.310;2023-03-04T10:10:31;94962.69;;;11.68;72.50
16451;BME280;12243;42.708;23.310;2023-03-04T10:13:02;94954.88;;;11.68;72.35
16451;BME280;12243;42.708;23.310;2023-03-04T10:15:33;94960.50;;;11.73;73.43
16451;BME280;12243;42.708;23.310;2023-03-04T10:18:03;94947.03;;;11.78;72.59
16451;BME280;12243;42.708;23.310;2023-03-04T10:20:45;94946.53;;;11.94;72.52
16451;BME280;12243;42.708;23.310;2023-03-04T10:23:18;94945.94;;;12.09;72.24
16451;BME280;12243;42.708;23.310;2023-03-04T10:25:47;94939.88;;;12.28;72.08
16451;BME280;12243;42.708;23.310;2023-03-04T10:28:20;94940.69;;;12.48;71.53
16451;BME280;12243;42.708;23.310;2023-03-04T10:30:53;94941.44;;;12.68;70.07
16451;BME280;12243;42.708;23.310;2023-03-04T10:33:25;94932.38;;;12.62;69.75
16451;BME280;12243;42.708;23.310;2023-03-04T10:35:58;94929.88;;;12.71;69.41
16451;BME280;12243;42.708;23.310;2023-03-04T10:38:28;94926.41;;;12.33;69.87
16451;BME280;12243;42.708;23.310;2023-03-04T10:40:58;94918.44;;;12.34;69.96
16451;BME280;12243;42.708;23.310;2023-03-04T10:43:25;94921.41;;;12.59;68.66
16451;BME280;12243;42.708;23.310;2023-03-04T10:45:57;94913.16;;;12.54;68.64
16451;BME280;12243;42.708;23.310;2023-03-04T10:48:27;94912.91;;;12.37;69.37
16451;BME280;12243;42.708;23.310;2023-03-04T10:51:10;94910.72;;;12.33;68.65
16451;BME280;12243;42.708;23.310;2023-03-04T10:53:40;94900.34;;;12.04;70.26
16451;BME280;12243;42.708;23.310;2023-03-04T10:56:33;94893.19;;;12.15;70.80
16451;BME280;12243;42.708;23.310;2023-03-04T10:59:24;94890.56;;;12.25;69.70
16451;BME280;12243;42.708;23.310;2023-03-04T11:01:55;94891.28;;;12.08;70.42
16451;BME280;12243;42.708;23.310;2023-03-04T11:04:23;94886.06;;;11.98;71.03
16451;BME280;12243;42.708;23.310;2023-03-04T11:06:51;94883.06;;;11.93;71.15
16451;BME280;12243;42.708;23.310;2023-03-04T11:09:25;94877.31;;;11.89;71.95
16451;BME280;12243;42.708;23.310;2023-03-04T11:11:54;94875.50;;;11.80;72.02
16451;BME280;12243;42.708;23.310;2023-03-04T11:14:23;94876.34;;;11.90;72.07
16451;BME280;12243;42.708;23.310;2023-03-04T11:16:55;94864.91;;;12.11;71.63
16451;BME280;12243;42.708;23.310;2023-03-04T11:19:24;94868.16;;;12.13;70.93
16451;BME280;12243;42.708;23.310;2023-03-04T11:21:54;94851.81;;;12.21;70.83
16451;BME280;12243;42.708;23.310;2023-03-04T11:24:25;94852.75;;;12.29;70.68
16451;BME280;12243;42.708;23.310;2023-03-04T11:26:56;94844.16;;;12.47;70.82
16451;BME280;12243;42.708;23.310;2023-03-04T11:29:27;94838.66;;;12.50;69.80
16451;BME280;12243;42.708;23.310;2023-03-04T11:32:00;94834.00;;;12.44;69.02
16451;BME280;12243;42.708;23.310;2023-03-04T11:34:35;94837.72;;;12.41;69.18
16451;BME280;12243;42.708;23.310;2023-03-04T11:37:07;94832.03;;;12.18;70.74
16451;BME280;12243;42.708;23.310;2023-03-04T11:39:43;94826.63;;;12.29;70.74
16451;BME280;12243;42.708;23.310;2023-03-04T11:42:22;94826.44;;;12.40;69.66
16451;BME280;12243;42.708;23.310;2023-03-04T11:44:50;94818.88;;;12.10;69.93
16451;BME280;12243;42.708;23.310;2023-03-04T11:47:31;94824.72;;;12.31;70.62
16451;BME280;12243;42.708;23.310;2023-03-04T11:50:17;94820.41;;;12.40;69.38
16451;BME280;12243;42.708;23.310;2023-03-04T11:53:07;94820.53;;;12.48;69.49
16451;BME280;12243;42.708;23.310;2023-03-04T11:55:45;94812.00;;;12.74;69.57
16451;BME280;12243;42.708;23.310;2023-03-04T11:58:37;94814.72;;;13.00;68.17
16451;BME280;12243;42.708;23.310;2023-03-04T12:01:14;94815.66;;;13.26;67.77
16451;BME280;12243;42.708;23.310;2023-03-04T12:04:09;94805.59;;;13.49;66.45
16451;BME280;12243;42.708;23.310;2023-03-04T12:06:47;94809.38;;;13.55;65.60
16451;BME280;12243;42.708;23.310;2023-03-04T12:09:41;94806.63;;;13.56;64.78
16451;BME280;12243;42.708;23.310;2023-03-04T12:12:26;94801.38;;;13.39;65.42
16451;BME280;12243;42.708;23.310;2023-03-04T12:15:03;94792.03;;;13.54;66.29
16451;BME280;12243;42.708;23.310;2023-03-04T12:17:46;94789.59;;;13.78;65.27
16451;BME280;12243;42.708;23.310;2023-03-04T12:20:34;94786.94;;;13.70;64.91
16451;BME280;12243;42.708;23.310;2023-03-04T12:23:14;94784.09;;;13.46;65.43
16451;BME280;12243;42.708;23.310;2023-03-04T12:25:53;94786.34;;;13.05;66.62
16451;BME280;12243;42.708;23.310;2023-03-04T12:28:37;94780.34;;;12.77;67.99
16451;BME280;12243;42.708;23.310;2023-03-04T12:37:15;94774.91;;;12.43;68.90
16451;BME280;12243;42.708;23.310;2023-03-04T12:39:53;94769.97;;;12.39;69.27
16451;BME280;12243;42.708;23.310;2023-03-04T12:42:36;94772.78;;;12.28;69.38
16451;BME280;12243;42.708;23.310;2023-03-04T12:45:16;94761.16;;;12.40;69.76
16451;BME280;12243;42.708;23.310;2023-03-04T12:47:53;94766.66;;;12.37;69.57
16451;BME280;12243;42.708;23.310;2023-03-04T12:50:30;94760.22;;;12.42;70.09
16451;BME280;12243;42.708;23.310;2023-03-04T12:53:09;94749.94;;;12.30;71.12
16451;BME280;12243;42.708;23.310;2023-03-04T12:55:39;94753.16;;;12.24;71.14
16451;BME280;12243;42.708;23.310;2023-03-04T12:58:14;94750.91;;;12.29;71.33
16451;BME280;12243;42.708;23.310;2023-03-04T13:00:48;94749.28;;;12.28;72.05
16451;BME280;12243;42.708;23.310;2023-03-04T13:03:23;94738.66;;;12.30;71.39
16451;BME280;12243;42.708;23.310;2023-03-04T13:06:01;94739.66;;;12.29;71.13
16451;BME280;12243;42.708;23.310;2023-03-04T13:08:36;94741.47;;;12.19;71.22
16451;BME280;12243;42.708;23.310;2023-03-04T13:11:37;94731.25;;;11.98;71.89
16451;BME280;12243;42.708;23.310;2023-03-04T13:14:06;94728.81;;;11.96;71.80